createdAt,value
2018-02-13T00:00:24.367Z,3.73
2018-02-13T00:01:26.817Z,3.72
2018-02-13T00:02:37.067Z,3.72
2018-02-13T00:03:39.755Z,3.69
2018-02-13T00:04:42.243Z,3.68
2018-02-13T00:05:44.771Z,3.68
2018-02-13T00:06:47.259Z,3.67
2018-02-13T00:07:49.727Z,3.68
2018-02-13T00:08:52.204Z,3.67
2018-02-13T00:09:54.716Z,3.67
2018-02-13T00:10:57.165Z,3.66
2018-02-13T00:11:59.598Z,3.66
2018-02-13T00:13:02.064Z,3.65
2018-02-13T00:14:04.518Z,3.65
2018-02-13T00:15:07.410Z,3.65
2018-02-13T00:16:09.870Z,3.63
2018-02-13T00:17:12.358Z,3.63
2018-02-13T00:18:14.884Z,3.63
2018-02-13T00:19:17.372Z,3.63
2018-02-13T00:20:19.870Z,3.62
2018-02-13T00:21:23.099Z,3.61
2018-02-13T00:22:25.632Z,3.61
2018-02-13T00:23:28.202Z,3.60
2018-02-13T00:24:30.753Z,3.60
2018-02-13T00:25:33.194Z,3.59
2018-02-13T00:26:35.729Z,3.58
2018-02-13T00:27:38.274Z,3.58
2018-02-13T00:28:40.732Z,3.57
2018-02-13T00:29:43.256Z,3.56
2018-02-13T00:30:45.795Z,3.56
2018-02-13T00:31:48.274Z,3.55
2018-02-13T00:32:50.719Z,3.55
2018-02-13T00:33:53.193Z,3.53
2018-02-13T00:34:55.688Z,3.53
2018-02-13T00:35:58.157Z,3.52
2018-02-13T00:37:00.671Z,3.52
2018-02-13T00:38:03.242Z,3.51
2018-02-13T00:39:05.751Z,3.50
2018-02-13T00:40:08.329Z,3.50
2018-02-13T00:41:10.843Z,3.48
2018-02-13T00:42:13.360Z,3.47
2018-02-13T00:43:15.859Z,3.47
2018-02-13T00:44:18.356Z,3.47
2018-02-13T00:45:20.847Z,3.46
2018-02-13T00:46:23.345Z,3.46
2018-02-13T00:47:25.820Z,3.45
2018-02-13T00:48:28.342Z,3.45
2018-02-13T00:49:30.815Z,3.45
2018-02-13T00:50:33.341Z,3.45
2018-02-13T00:51:35.885Z,3.45
2018-02-13T00:52:38.475Z,3.44
2018-02-13T00:53:41.007Z,3.44
2018-02-13T00:54:43.476Z,3.44
2018-02-13T00:55:45.959Z,3.44
2018-02-13T00:56:48.441Z,3.43
2018-02-13T00:57:50.907Z,3.43
2018-02-13T00:58:53.459Z,3.42
2018-02-13T00:59:55.898Z,3.42
2018-02-13T01:00:58.404Z,3.41
2018-02-13T01:02:00.936Z,3.41
2018-02-13T01:03:03.555Z,3.40
2018-02-13T01:04:06.051Z,3.39
2018-02-13T01:05:08.659Z,3.39
2018-02-13T01:06:11.144Z,3.38
2018-02-13T01:07:13.673Z,3.38
2018-02-13T01:08:16.113Z,3.37
2018-02-13T01:09:18.675Z,3.36
2018-02-13T01:10:21.111Z,3.35
2018-02-13T01:11:23.661Z,3.35
2018-02-13T01:12:26.343Z,3.35
2018-02-13T01:13:28.873Z,3.35
2018-02-13T01:14:31.370Z,3.35
2018-02-13T01:15:33.839Z,3.34
2018-02-13T01:16:36.316Z,3.35
2018-02-13T01:17:38.850Z,3.35
2018-02-13T01:18:41.321Z,3.34
2018-02-13T01:19:43.784Z,3.35
2018-02-13T01:20:46.285Z,3.35
2018-02-13T01:21:48.761Z,3.35
2018-02-13T01:22:51.212Z,3.35
2018-02-13T01:23:53.681Z,3.37
2018-02-13T01:24:56.160Z,3.38
2018-02-13T01:25:58.724Z,3.39
2018-02-13T01:27:01.198Z,3.40
2018-02-13T01:28:03.634Z,3.41
2018-02-13T01:29:06.109Z,3.42
2018-02-13T01:30:08.618Z,3.44
2018-02-13T01:31:11.144Z,3.45
2018-02-13T01:32:13.633Z,3.44
2018-02-13T01:33:16.150Z,3.45
2018-02-13T01:34:18.634Z,3.46
2018-02-13T01:35:21.126Z,3.46
2018-02-13T01:36:23.601Z,3.45
2018-02-13T01:37:26.069Z,3.44
2018-02-13T01:38:28.575Z,3.42
2018-02-13T01:39:31.009Z,3.42
2018-02-13T01:40:33.515Z,3.41
2018-02-13T01:41:35.978Z,3.40
2018-02-13T01:42:38.489Z,3.41
2018-02-13T01:43:40.951Z,3.40
2018-02-13T01:44:43.439Z,3.39
2018-02-13T01:45:45.929Z,3.40
2018-02-13T01:46:48.388Z,3.40
2018-02-13T01:47:50.917Z,3.41
2018-02-13T01:48:53.368Z,3.41
2018-02-13T01:49:55.845Z,3.42
2018-02-13T01:50:58.401Z,3.42
2018-02-13T01:52:00.929Z,3.42
2018-02-13T01:53:03.461Z,3.41
2018-02-13T01:54:05.912Z,3.41
2018-02-13T01:55:08.520Z,3.40
2018-02-13T01:56:11.054Z,3.42
2018-02-13T01:57:13.511Z,3.42
2018-02-13T01:58:16.048Z,3.43
2018-02-13T01:59:18.540Z,3.44
2018-02-13T02:00:20.997Z,3.45
2018-02-13T02:01:23.579Z,3.44
2018-02-13T02:02:26.066Z,3.45
2018-02-13T02:03:28.547Z,3.44
2018-02-13T02:04:31.127Z,3.43
2018-02-13T02:05:33.637Z,3.42
2018-02-13T02:06:36.110Z,3.40
2018-02-13T02:07:38.735Z,3.39
2018-02-13T02:08:41.289Z,3.36
2018-02-13T02:09:43.749Z,3.35
2018-02-13T02:10:46.238Z,3.33
2018-02-13T02:11:48.727Z,3.31
2018-02-13T02:12:51.173Z,3.29
2018-02-13T02:13:53.657Z,3.27
2018-02-13T02:14:56.127Z,3.26
2018-02-13T02:15:58.668Z,3.24
2018-02-13T02:17:01.153Z,3.22
2018-02-13T02:18:03.677Z,3.22
2018-02-13T02:19:06.175Z,3.20
2018-02-13T02:20:08.827Z,3.18
2018-02-13T02:21:11.344Z,3.17
2018-02-13T02:22:13.891Z,3.15
2018-02-13T02:23:16.362Z,3.15
2018-02-13T02:24:19.018Z,3.14
2018-02-13T02:25:21.495Z,3.13
2018-02-13T02:26:23.963Z,3.12
2018-02-13T02:27:26.425Z,3.09
2018-02-13T02:28:28.948Z,3.08
2018-02-13T02:29:31.535Z,3.07
2018-02-13T02:30:34.005Z,3.06
2018-02-13T02:31:36.471Z,3.05
2018-02-13T02:32:40.140Z,3.04
2018-02-13T02:33:43.516Z,3.03
2018-02-13T02:34:46.002Z,3.02
2018-02-13T02:35:48.476Z,3.01
2018-02-13T02:36:50.994Z,3.01
2018-02-13T02:37:53.424Z,3.00
2018-02-13T02:38:56.029Z,2.99
2018-02-13T02:39:58.553Z,2.98
2018-02-13T02:41:01.040Z,2.96
2018-02-13T02:42:03.524Z,2.96
2018-02-13T02:43:06.073Z,2.96
2018-02-13T02:44:08.534Z,2.96
2018-02-13T02:45:11.082Z,2.94
2018-02-13T02:46:13.532Z,2.94
2018-02-13T02:47:19.023Z,2.93
2018-02-13T02:48:21.617Z,2.93
2018-02-13T02:49:24.080Z,2.92
2018-02-13T02:50:26.627Z,2.91
2018-02-13T02:51:29.104Z,2.91
2018-02-13T02:52:31.597Z,2.91
2018-02-13T02:53:34.062Z,2.90
2018-02-13T02:54:36.657Z,2.91
2018-02-13T02:55:39.117Z,2.90
2018-02-13T02:56:41.574Z,2.91
2018-02-13T02:57:44.238Z,2.90
2018-02-13T02:58:47.376Z,2.89
2018-02-13T02:59:49.818Z,2.89
2018-02-13T03:00:52.381Z,2.89
2018-02-13T03:01:54.892Z,2.88
2018-02-13T03:02:57.930Z,2.89
2018-02-13T03:04:00.422Z,2.89
2018-02-13T03:05:02.880Z,2.87
2018-02-13T03:06:05.455Z,2.87
2018-02-13T03:07:07.959Z,2.87
2018-02-13T03:08:10.507Z,2.87
2018-02-13T03:09:12.991Z,2.86
2018-02-13T03:10:15.496Z,2.86
2018-02-13T03:11:18.000Z,2.86
2018-02-13T03:12:20.643Z,2.86
2018-02-13T03:13:23.114Z,2.86
2018-02-13T03:14:25.624Z,2.85
2018-02-13T03:15:28.162Z,2.85
2018-02-13T03:16:30.735Z,2.84
2018-02-13T03:17:33.200Z,2.84
2018-02-13T03:18:35.834Z,2.84
2018-02-13T03:19:38.308Z,2.85
2018-02-13T03:20:40.867Z,2.84
2018-02-13T03:21:43.371Z,2.84
2018-02-13T03:22:45.828Z,2.83
2018-02-13T03:23:48.361Z,2.83
2018-02-13T03:24:50.958Z,2.82
2018-02-13T03:25:53.411Z,2.82
2018-02-13T03:26:56.120Z,2.82
2018-02-13T03:27:58.598Z,2.82
2018-02-13T03:29:01.158Z,2.82
2018-02-13T03:30:03.611Z,2.82
2018-02-13T03:31:06.168Z,2.81
2018-02-13T03:32:08.803Z,2.81
2018-02-13T03:33:11.295Z,2.81
2018-02-13T03:34:13.740Z,2.80
2018-02-13T03:35:16.264Z,2.80
2018-02-13T03:36:18.763Z,2.80
2018-02-13T03:37:21.335Z,2.79
2018-02-13T03:38:23.832Z,2.79
2018-02-13T03:39:26.287Z,2.77
2018-02-13T03:40:28.809Z,2.78
2018-02-13T03:41:31.307Z,2.78
2018-02-13T03:42:33.789Z,2.78
2018-02-13T03:43:36.261Z,2.78
2018-02-13T03:44:39.291Z,2.78
2018-02-13T03:45:41.796Z,2.78
2018-02-13T03:46:44.310Z,2.77
2018-02-13T03:47:46.782Z,2.76
2018-02-13T03:48:49.236Z,2.76
2018-02-13T03:49:52.509Z,2.76
2018-02-13T03:50:55.161Z,2.75
2018-02-13T03:51:57.648Z,2.74
2018-02-13T03:53:00.159Z,2.74
2018-02-13T03:54:02.663Z,2.74
2018-02-13T03:55:05.142Z,2.74
2018-02-13T03:56:07.659Z,2.74
2018-02-13T03:57:10.160Z,2.74
2018-02-13T03:58:12.672Z,2.73
2018-02-13T03:59:15.282Z,2.72
2018-02-13T04:00:17.769Z,2.72
2018-02-13T04:01:20.266Z,2.71
2018-02-13T04:02:22.769Z,2.71
2018-02-13T04:03:25.263Z,2.70
2018-02-13T04:04:27.718Z,2.70
2018-02-13T04:05:30.304Z,2.69
2018-02-13T04:06:32.780Z,2.69
2018-02-13T04:07:35.285Z,2.68
2018-02-13T04:08:37.811Z,2.67
2018-02-13T04:09:40.274Z,2.67
2018-02-13T04:10:42.735Z,2.66
2018-02-13T04:11:46.148Z,2.65
2018-02-13T04:12:48.625Z,2.64
2018-02-13T04:13:51.808Z,2.65
2018-02-13T04:14:54.248Z,2.64
2018-02-13T04:15:56.805Z,2.64
2018-02-13T04:16:59.345Z,2.63
2018-02-13T04:18:01.868Z,2.64
2018-02-13T04:19:04.379Z,2.62
2018-02-13T04:20:06.850Z,2.62
2018-02-13T04:21:09.340Z,2.62
2018-02-13T04:22:11.904Z,2.62
2018-02-13T04:23:14.468Z,2.61
2018-02-13T04:24:17.009Z,2.61
2018-02-13T04:25:20.527Z,2.61
2018-02-13T04:26:23.117Z,2.60
2018-02-13T04:27:25.591Z,2.60
2018-02-13T04:28:28.097Z,2.59
2018-02-13T04:29:30.716Z,2.60
2018-02-13T04:30:33.232Z,2.60
2018-02-13T04:31:35.837Z,2.60
2018-02-13T04:32:38.330Z,2.59
2018-02-13T04:33:40.814Z,2.59
2018-02-13T04:34:43.388Z,2.58
2018-02-13T04:35:45.952Z,2.59
2018-02-13T04:36:48.522Z,2.58
2018-02-13T04:37:51.068Z,2.58
2018-02-13T04:38:53.541Z,2.58
2018-02-13T04:39:56.068Z,2.59
2018-02-13T04:40:58.547Z,2.58
2018-02-13T04:42:00.999Z,2.58
2018-02-13T04:43:03.444Z,2.57
2018-02-13T04:44:05.940Z,2.57
2018-02-13T04:45:08.456Z,2.57
2018-02-13T04:46:11.006Z,2.58
2018-02-13T04:47:13.476Z,2.57
2018-02-13T04:48:16.039Z,2.56
2018-02-13T04:49:18.568Z,2.56
2018-02-13T04:50:21.080Z,2.56
2018-02-13T04:51:23.612Z,2.56
2018-02-13T04:52:26.094Z,2.55
2018-02-13T04:53:28.606Z,2.55
2018-02-13T04:54:31.124Z,2.55
2018-02-13T04:55:33.687Z,2.55
2018-02-13T04:56:36.285Z,2.55
2018-02-13T04:57:38.778Z,2.55
2018-02-13T04:58:41.299Z,2.55
2018-02-13T04:59:43.758Z,2.55
2018-02-13T05:00:46.315Z,2.54
2018-02-13T05:01:48.848Z,2.54
2018-02-13T05:02:51.320Z,2.55
2018-02-13T05:03:53.823Z,2.54
2018-02-13T05:04:56.334Z,2.54
2018-02-13T05:05:58.816Z,2.54
2018-02-13T05:07:01.307Z,2.54
2018-02-13T05:08:03.794Z,2.54
2018-02-13T05:09:06.328Z,2.55
2018-02-13T05:10:08.896Z,2.54
2018-02-13T05:11:11.369Z,2.54
2018-02-13T05:12:13.948Z,2.54
2018-02-13T05:13:16.449Z,2.54
2018-02-13T05:14:18.944Z,2.53
2018-02-13T05:15:21.392Z,2.54
2018-02-13T05:16:23.944Z,2.54
2018-02-13T05:17:26.452Z,2.53
2018-02-13T05:18:28.897Z,2.53
2018-02-13T05:19:31.348Z,2.54
2018-02-13T05:20:33.917Z,2.53
2018-02-13T05:21:36.451Z,2.53
2018-02-13T05:22:39.028Z,2.53
2018-02-13T05:23:41.476Z,2.53
2018-02-13T05:24:43.913Z,2.53
2018-02-13T05:25:46.348Z,2.52
2018-02-13T05:26:48.877Z,2.52
2018-02-13T05:27:51.377Z,2.52
2018-02-13T05:28:53.871Z,2.52
2018-02-13T05:29:56.326Z,2.51
2018-02-13T05:30:58.816Z,2.51
2018-02-13T05:32:01.337Z,2.51
2018-02-13T05:33:03.864Z,2.50
2018-02-13T05:34:06.333Z,2.50
2018-02-13T05:35:08.791Z,2.49
2018-02-13T05:36:11.315Z,2.49
2018-02-13T05:37:13.794Z,2.49
2018-02-13T05:38:16.445Z,2.50
2018-02-13T05:39:18.964Z,2.49
2018-02-13T05:40:21.476Z,2.50
2018-02-13T05:41:23.945Z,2.50
2018-02-13T05:42:26.555Z,2.49
2018-02-13T05:43:29.001Z,2.49
2018-02-13T05:44:31.445Z,2.49
2018-02-13T05:45:33.993Z,2.49
2018-02-13T05:46:36.428Z,2.49
2018-02-13T05:47:39.044Z,2.49
2018-02-13T05:48:41.548Z,2.48
2018-02-13T05:49:44.043Z,2.49
2018-02-13T05:50:46.512Z,2.49
2018-02-13T05:51:48.954Z,2.50
2018-02-13T05:52:51.487Z,2.50
2018-02-13T05:53:54.048Z,2.50
2018-02-13T05:54:56.524Z,2.49
2018-02-13T05:55:59.052Z,2.49
2018-02-13T05:57:01.535Z,2.50
2018-02-13T05:58:04.064Z,2.49
2018-02-13T05:59:06.651Z,2.49
2018-02-13T06:00:09.120Z,2.48
2018-02-13T06:01:11.580Z,2.48
2018-02-13T06:02:14.119Z,2.48
2018-02-13T06:03:16.588Z,2.49
2018-02-13T06:04:19.071Z,2.48
2018-02-13T06:05:21.526Z,2.48
2018-02-13T06:06:23.994Z,2.48
2018-02-13T06:07:26.435Z,2.48
2018-02-13T06:08:28.900Z,2.49
2018-02-13T06:09:31.368Z,2.49
2018-02-13T06:10:34.849Z,2.48
2018-02-13T06:11:37.307Z,2.49
2018-02-13T06:12:39.814Z,2.48
2018-02-13T06:13:42.341Z,2.49
2018-02-13T06:14:44.863Z,2.48
2018-02-13T06:15:47.352Z,2.48
2018-02-13T06:16:49.864Z,2.47
2018-02-13T06:17:52.329Z,2.47
2018-02-13T06:18:54.879Z,2.46
2018-02-13T06:19:57.421Z,2.46
2018-02-13T06:21:00.125Z,2.46
2018-02-13T06:22:02.644Z,2.46
2018-02-13T06:23:05.196Z,2.45
2018-02-13T06:24:07.679Z,2.45
2018-02-13T06:25:10.143Z,2.45
2018-02-13T06:26:12.674Z,2.45
2018-02-13T06:27:15.172Z,2.45
2018-02-13T06:28:17.988Z,2.45
2018-02-13T06:29:20.621Z,2.45
2018-02-13T06:30:23.286Z,2.45
2018-02-13T06:31:25.845Z,2.45
2018-02-13T06:32:28.293Z,2.45
2018-02-13T06:33:30.757Z,2.45
2018-02-13T06:34:33.303Z,2.43
2018-02-13T06:35:35.812Z,2.43
2018-02-13T06:36:38.302Z,2.42
2018-02-13T06:37:40.771Z,2.42
2018-02-13T06:38:43.246Z,2.42
2018-02-13T06:39:45.762Z,2.41
2018-02-13T06:40:48.291Z,2.41
2018-02-13T06:41:50.794Z,2.41
2018-02-13T06:42:53.319Z,2.41
2018-02-13T06:43:55.844Z,2.41
2018-02-13T06:44:58.386Z,2.41
2018-02-13T06:46:00.867Z,2.40
2018-02-13T06:47:03.415Z,2.40
2018-02-13T06:48:05.882Z,2.40
2018-02-13T06:49:08.401Z,2.40
2018-02-13T06:50:12.695Z,2.40
2018-02-13T06:51:15.233Z,2.40
2018-02-13T06:52:18.710Z,2.40
2018-02-13T06:53:21.189Z,2.40
2018-02-13T06:54:23.889Z,2.41
2018-02-13T06:55:26.380Z,2.41
2018-02-13T06:56:28.878Z,2.41
2018-02-13T06:57:31.535Z,2.42
2018-02-13T06:58:34.129Z,2.42
2018-02-13T06:59:36.680Z,2.43
2018-02-13T07:00:39.195Z,2.43
2018-02-13T07:01:41.675Z,2.43
2018-02-13T07:02:44.123Z,2.44
2018-02-13T07:03:46.660Z,2.44
2018-02-13T07:04:49.159Z,2.44
2018-02-13T07:05:51.661Z,2.44
2018-02-13T07:06:54.171Z,2.45
2018-02-13T07:07:56.757Z,2.45
2018-02-13T07:08:59.327Z,2.45
2018-02-13T07:10:02.779Z,2.46
2018-02-13T07:11:05.402Z,2.46
2018-02-13T07:12:07.897Z,2.46
2018-02-13T07:13:10.402Z,2.46
2018-02-13T07:14:12.918Z,2.47
2018-02-13T07:15:15.382Z,2.46
2018-02-13T07:16:18.749Z,2.46
2018-02-13T07:17:21.366Z,2.45
2018-02-13T07:18:23.812Z,2.46
2018-02-13T07:19:26.293Z,2.46
2018-02-13T07:20:28.872Z,2.46
2018-02-13T07:21:31.423Z,2.47
2018-02-13T07:22:34.011Z,2.46
2018-02-13T07:23:37.394Z,2.47
2018-02-13T07:24:40.023Z,2.47
2018-02-13T07:25:42.498Z,2.48
2018-02-13T07:26:45.056Z,2.48
2018-02-13T07:27:47.516Z,2.49
2018-02-13T07:28:50.009Z,2.50
2018-02-13T07:29:53.462Z,2.50
2018-02-13T07:30:56.097Z,2.51
2018-02-13T07:31:58.586Z,2.52
2018-02-13T07:33:02.569Z,2.54
2018-02-13T07:34:05.026Z,2.54
2018-02-13T07:35:08.265Z,2.56
2018-02-13T07:36:10.876Z,2.56
2018-02-13T07:37:13.438Z,2.57
2018-02-13T07:38:15.932Z,2.59
2018-02-13T07:39:18.396Z,2.60
2018-02-13T07:40:20.926Z,2.61
2018-02-13T07:41:23.624Z,2.62
2018-02-13T07:42:26.298Z,2.63
2018-02-13T07:43:28.853Z,2.63
2018-02-13T07:44:31.619Z,2.65
2018-02-13T07:45:34.136Z,2.66
2018-02-13T07:46:36.611Z,2.68
2018-02-13T07:47:39.954Z,2.69
2018-02-13T07:48:42.655Z,2.70
2018-02-13T07:49:45.184Z,2.71
2018-02-13T07:50:48.291Z,2.72
2018-02-13T07:51:50.752Z,2.73
2018-02-13T07:52:53.225Z,2.74
2018-02-13T07:53:55.690Z,2.75
2018-02-13T07:54:58.407Z,2.76
2018-02-13T07:56:00.923Z,2.77
2018-02-13T07:57:03.386Z,2.78
2018-02-13T07:58:05.895Z,2.79
2018-02-13T07:59:08.420Z,2.80
2018-02-13T08:00:10.890Z,2.80
2018-02-13T08:01:13.453Z,2.81
2018-02-13T08:02:16.057Z,2.82
2018-02-13T08:03:18.556Z,2.83
2018-02-13T08:04:21.053Z,2.84
2018-02-13T08:05:24.506Z,2.85
2018-02-13T08:06:26.958Z,2.86
2018-02-13T08:07:29.422Z,2.87
2018-02-13T08:08:31.947Z,2.89
2018-02-13T08:09:34.514Z,2.89
2018-02-13T08:10:37.062Z,2.89
2018-02-13T08:11:39.702Z,2.91
2018-02-13T08:12:42.206Z,2.92
2018-02-13T08:13:45.608Z,2.93
2018-02-13T08:14:48.085Z,2.93
2018-02-13T08:15:50.720Z,2.94
2018-02-13T08:16:53.211Z,2.96
2018-02-13T08:17:55.951Z,2.97
2018-02-13T08:18:58.407Z,2.98
2018-02-13T08:20:00.880Z,2.99
2018-02-13T08:21:03.547Z,3.00
2018-02-13T08:22:06.100Z,3.02
2018-02-13T08:23:08.738Z,3.04
2018-02-13T08:24:11.275Z,3.05
2018-02-13T08:25:13.769Z,3.06
2018-02-13T08:26:16.356Z,3.07
2018-02-13T08:27:18.844Z,3.09
2018-02-13T08:28:21.384Z,3.11
2018-02-13T08:29:24.260Z,3.11
2018-02-13T08:30:26.764Z,3.13
2018-02-13T08:31:29.226Z,3.14
2018-02-13T08:32:31.877Z,3.15
2018-02-13T08:33:34.443Z,3.16
2018-02-13T08:34:37.014Z,3.17
2018-02-13T08:35:39.482Z,3.18
2018-02-13T08:36:42.013Z,3.20
2018-02-13T08:37:44.612Z,3.21
2018-02-13T08:38:47.093Z,3.24
2018-02-13T08:39:49.685Z,3.26
2018-02-13T08:40:52.425Z,3.26
2018-02-13T08:41:54.887Z,3.28
2018-02-13T08:42:57.725Z,3.29
2018-02-13T08:44:00.194Z,3.30
2018-02-13T08:45:02.937Z,3.31
2018-02-13T08:46:05.451Z,3.33
2018-02-13T08:47:07.919Z,3.34
2018-02-13T08:48:10.375Z,3.34
2018-02-13T08:49:12.858Z,3.36
2018-02-13T08:50:15.382Z,3.36
2018-02-13T08:51:17.921Z,3.36
2018-02-13T08:52:20.451Z,3.38
2018-02-13T08:53:22.934Z,3.39
2018-02-13T08:54:25.540Z,3.39
2018-02-13T08:55:28.307Z,3.40
2018-02-13T08:56:30.777Z,3.41
2018-02-13T08:57:33.622Z,3.42
2018-02-13T08:58:36.465Z,3.43
2018-02-13T08:59:39.950Z,3.44
2018-02-13T09:00:42.529Z,3.46
2018-02-13T09:01:44.985Z,3.47
2018-02-13T09:02:47.451Z,3.49
2018-02-13T09:03:49.983Z,3.51
2018-02-13T09:04:52.446Z,3.51
2018-02-13T09:05:55.049Z,3.52
2018-02-13T09:06:57.553Z,3.54
2018-02-13T09:08:00.078Z,3.55
2018-02-13T09:09:02.682Z,3.55
2018-02-13T09:10:05.152Z,3.57
2018-02-13T09:11:07.729Z,3.58
2018-02-13T09:12:10.325Z,3.58
2018-02-13T09:13:12.768Z,3.59
2018-02-13T09:14:15.265Z,3.59
2018-02-13T09:15:17.756Z,3.60
2018-02-13T09:16:20.516Z,3.61
2018-02-13T09:17:23.030Z,3.62
2018-02-13T09:18:25.521Z,3.64
2018-02-13T09:19:28.016Z,3.65
2018-02-13T09:20:30.603Z,3.66
2018-02-13T09:21:33.281Z,3.68
2018-02-13T09:22:35.775Z,3.70
2018-02-13T09:23:38.901Z,3.71
2018-02-13T09:24:41.393Z,3.72
2018-02-13T09:25:43.869Z,3.74
2018-02-13T09:26:46.337Z,3.75
2018-02-13T09:27:48.808Z,3.77
2018-02-13T09:28:51.271Z,3.79
2018-02-13T09:29:53.717Z,3.79
2018-02-13T09:30:56.224Z,3.80
2018-02-13T09:31:58.707Z,3.82
2018-02-13T09:33:01.451Z,3.82
2018-02-13T09:34:03.967Z,3.83
2018-02-13T09:35:06.520Z,3.84
2018-02-13T09:36:09.031Z,3.85
2018-02-13T09:37:11.527Z,3.86
2018-02-13T09:38:13.989Z,3.87
2018-02-13T09:39:16.440Z,3.89
2018-02-13T09:40:18.935Z,3.90
2018-02-13T09:41:21.536Z,3.92
2018-02-13T09:42:24.112Z,3.93
2018-02-13T09:43:26.656Z,3.95
2018-02-13T09:44:29.110Z,3.96
2018-02-13T09:45:31.709Z,3.97
2018-02-13T09:46:34.176Z,3.98
2018-02-13T09:47:36.709Z,4.00
2018-02-13T09:48:39.180Z,4.01
2018-02-13T09:49:41.661Z,4.04
2018-02-13T09:50:44.111Z,4.04
2018-02-13T09:51:46.709Z,4.06
2018-02-13T09:52:49.212Z,4.07
2018-02-13T09:53:52.065Z,4.09
2018-02-13T09:54:54.684Z,4.10
2018-02-13T09:55:57.240Z,4.12
2018-02-13T09:57:00.258Z,4.14
2018-02-13T09:58:02.794Z,4.15
2018-02-13T09:59:05.248Z,4.17
2018-02-13T10:00:07.713Z,4.18
2018-02-13T10:01:10.941Z,4.20
2018-02-13T10:02:13.468Z,4.21
2018-02-13T10:03:16.043Z,4.22
2018-02-13T10:04:18.572Z,4.24
2018-02-13T10:05:21.069Z,4.25
2018-02-13T10:06:23.527Z,4.27
2018-02-13T10:07:26.021Z,4.29
2018-02-13T10:08:30.945Z,4.31
2018-02-13T10:09:33.512Z,4.31
2018-02-13T10:10:35.958Z,4.33
2018-02-13T10:11:38.430Z,4.34
2018-02-13T10:12:41.658Z,4.35
2018-02-13T10:13:44.237Z,4.36
2018-02-13T10:14:46.710Z,4.37
2018-02-13T10:15:49.759Z,4.39
2018-02-13T10:16:52.327Z,4.39
2018-02-13T10:17:54.794Z,4.41
2018-02-13T10:18:57.288Z,4.42
2018-02-13T10:19:59.780Z,4.44
2018-02-13T10:21:02.305Z,4.45
2018-02-13T10:22:04.842Z,4.48
2018-02-13T10:23:07.332Z,4.49
2018-02-13T10:24:09.815Z,4.50
2018-02-13T10:25:12.323Z,4.52
2018-02-13T10:26:14.779Z,4.53
2018-02-13T10:27:17.217Z,4.55
2018-02-13T10:28:19.746Z,4.57
2018-02-13T10:29:23.001Z,4.58
2018-02-13T10:30:25.741Z,4.60
2018-02-13T10:31:28.239Z,4.62
2018-02-13T10:32:30.736Z,4.64
2018-02-13T10:33:33.210Z,4.65
2018-02-13T10:34:35.699Z,4.68
2018-02-13T10:35:38.149Z,4.69
2018-02-13T10:36:40.620Z,4.73
2018-02-13T10:37:45.927Z,4.74
2018-02-13T10:38:48.377Z,4.76
2018-02-13T10:39:51.271Z,4.77
2018-02-13T10:40:53.841Z,4.79
2018-02-13T10:41:56.318Z,4.80
2018-02-13T10:42:58.763Z,4.81
2018-02-13T10:44:02.299Z,4.83
2018-02-13T10:45:05.694Z,4.85
2018-02-13T10:46:08.251Z,4.86
2018-02-13T10:47:10.703Z,4.88
2018-02-13T10:48:13.168Z,4.89
2018-02-13T10:49:15.636Z,4.91
2018-02-13T10:50:18.189Z,4.94
2018-02-13T10:51:20.631Z,4.95
2018-02-13T10:52:23.133Z,4.97
2018-02-13T10:53:26.428Z,4.99
2018-02-13T10:54:29.186Z,4.99
2018-02-13T10:55:31.801Z,5.02
2018-02-13T10:56:34.271Z,5.04
2018-02-13T10:57:36.726Z,5.05
2018-02-13T10:58:39.203Z,5.06
2018-02-13T10:59:41.710Z,5.07
2018-02-13T11:00:49.833Z,5.09
2018-02-13T11:01:52.352Z,5.10
2018-02-13T11:02:54.825Z,5.12
2018-02-13T11:03:57.268Z,5.14
2018-02-13T11:04:59.823Z,5.15
2018-02-13T11:06:02.315Z,5.17
2018-02-13T11:07:04.816Z,5.19
2018-02-13T11:08:07.267Z,5.21
2018-02-13T11:09:09.894Z,5.23
2018-02-13T11:10:13.314Z,5.24
2018-02-13T11:11:15.783Z,5.25
2018-02-13T11:12:18.246Z,5.27
2018-02-13T11:13:20.802Z,5.28
2018-02-13T11:14:23.288Z,5.30
2018-02-13T11:15:25.771Z,5.32
2018-02-13T11:16:28.235Z,5.34
2018-02-13T11:17:30.703Z,5.35
2018-02-13T11:18:34.382Z,5.36
2018-02-13T11:19:36.836Z,5.38
2018-02-13T11:20:39.710Z,5.39
2018-02-13T11:21:42.185Z,5.41
2018-02-13T11:22:44.645Z,5.42
2018-02-13T11:23:47.096Z,5.43
2018-02-13T11:24:49.551Z,5.44
2018-02-13T11:25:51.986Z,5.46
2018-02-13T11:26:54.479Z,5.48
2018-02-13T11:27:57.085Z,5.51
2018-02-13T11:28:59.620Z,5.53
2018-02-13T11:30:02.081Z,5.57
2018-02-13T11:31:04.542Z,5.59
2018-02-13T11:32:07.405Z,5.60
2018-02-13T11:33:09.899Z,5.61
2018-02-13T11:34:12.337Z,5.63
2018-02-13T11:35:14.937Z,5.63
2018-02-13T11:36:17.482Z,5.65
2018-02-13T11:37:19.987Z,5.66
2018-02-13T11:38:22.496Z,5.69
2018-02-13T11:39:24.975Z,5.70
2018-02-13T11:40:27.470Z,5.72
2018-02-13T11:41:29.939Z,5.73
2018-02-13T11:42:32.401Z,5.75
2018-02-13T11:43:34.867Z,5.75
2018-02-13T11:44:37.400Z,5.77
2018-02-13T11:45:39.909Z,5.79
2018-02-13T11:46:42.731Z,5.81
2018-02-13T11:47:45.250Z,5.83
2018-02-13T11:48:48.441Z,5.84
2018-02-13T11:49:50.899Z,5.85
2018-02-13T11:50:53.469Z,5.86
2018-02-13T11:51:56.022Z,5.87
2018-02-13T11:52:59.373Z,5.89
2018-02-13T11:54:01.838Z,5.91
2018-02-13T11:55:04.707Z,5.93
2018-02-13T11:56:07.197Z,5.94
2018-02-13T11:57:09.705Z,5.94
2018-02-13T11:58:12.244Z,5.97
2018-02-13T11:59:14.692Z,5.98
2018-02-13T12:00:17.140Z,6.00
2018-02-13T12:01:19.678Z,6.00
2018-02-13T12:02:22.151Z,6.02
2018-02-13T12:03:24.644Z,6.03
2018-02-13T12:04:27.141Z,6.06
2018-02-13T12:05:30.145Z,6.07
2018-02-13T12:06:32.704Z,6.08
2018-02-13T12:07:35.270Z,6.10
2018-02-13T12:08:37.776Z,6.11
2018-02-13T12:09:40.245Z,6.12
2018-02-13T12:10:42.735Z,6.14
2018-02-13T12:11:45.202Z,6.16
2018-02-13T12:12:47.642Z,6.17
2018-02-13T12:13:50.164Z,6.17
2018-02-13T12:14:52.739Z,6.18
2018-02-13T12:15:55.179Z,6.18
2018-02-13T12:16:58.268Z,6.19
2018-02-13T12:18:01.627Z,6.19
2018-02-13T12:19:04.178Z,6.20
2018-02-13T12:20:06.735Z,6.23
2018-02-13T12:21:09.384Z,6.25
2018-02-13T12:22:12.041Z,6.27
2018-02-13T12:23:14.508Z,6.29
2018-02-13T12:24:17.929Z,6.31
2018-02-13T12:25:32.200Z,6.34
2018-02-13T12:26:34.654Z,6.35
2018-02-13T12:27:38.995Z,6.38
2018-02-13T12:28:41.467Z,6.38
2018-02-13T12:29:43.922Z,6.38
2018-02-13T12:30:46.381Z,6.39
2018-02-13T12:31:48.900Z,6.39
2018-02-13T12:32:51.349Z,6.39
2018-02-13T12:33:53.853Z,6.40
2018-02-13T12:34:56.355Z,6.39
2018-02-13T12:35:58.824Z,6.39
2018-02-13T12:37:01.281Z,6.41
2018-02-13T12:38:03.726Z,6.42
2018-02-13T12:39:06.853Z,6.43
2018-02-13T12:40:09.324Z,6.44
2018-02-13T12:41:11.998Z,6.45
2018-02-13T12:42:14.508Z,6.45
2018-02-13T12:43:16.942Z,6.45
2018-02-13T12:44:19.431Z,6.47
2018-02-13T12:45:22.852Z,6.47
2018-02-13T12:46:25.364Z,6.49
2018-02-13T12:47:27.848Z,6.50
2018-02-13T12:48:30.305Z,6.51
2018-02-13T12:49:32.858Z,6.52
2018-02-13T12:50:35.349Z,6.52
2018-02-13T12:51:37.795Z,6.53
2018-02-13T12:52:41.190Z,6.54
2018-02-13T12:53:44.262Z,6.54
2018-02-13T12:54:46.730Z,6.55
2018-02-13T12:55:49.274Z,6.56
2018-02-13T12:56:51.727Z,6.57
2018-02-13T12:57:54.321Z,6.59
2018-02-13T12:58:56.824Z,6.59
2018-02-13T12:59:59.294Z,6.60
2018-02-13T13:01:01.803Z,6.60
2018-02-13T13:02:04.292Z,6.62
2018-02-13T13:03:06.854Z,6.61
2018-02-13T13:04:09.972Z,6.62
2018-02-13T13:05:12.485Z,6.62
2018-02-13T13:06:14.984Z,6.62
2018-02-13T13:07:17.456Z,6.63
2018-02-13T13:08:19.899Z,6.63
2018-02-13T13:09:22.380Z,6.63
2018-02-13T13:10:24.844Z,6.64
2018-02-13T13:11:27.381Z,6.65
2018-02-13T13:12:30.018Z,6.65
2018-02-13T13:13:32.576Z,6.66
2018-02-13T13:14:35.083Z,6.67
2018-02-13T13:15:37.627Z,6.67
2018-02-13T13:16:40.156Z,6.68
2018-02-13T13:17:42.608Z,6.70
2018-02-13T13:18:45.073Z,6.71
2018-02-13T13:19:47.564Z,6.72
2018-02-13T13:20:50.041Z,6.73
2018-02-13T13:21:52.497Z,6.74
2018-02-13T13:22:54.952Z,6.75
2018-02-13T13:23:57.456Z,6.76
2018-02-13T13:25:00.016Z,6.77
2018-02-13T13:26:02.490Z,6.78
2018-02-13T13:27:04.971Z,6.79
2018-02-13T13:28:07.414Z,6.79
2018-02-13T13:29:09.853Z,6.80
2018-02-13T13:30:13.478Z,6.80
2018-02-13T13:31:15.989Z,6.80
2018-02-13T13:32:18.465Z,6.80
2018-02-13T13:33:20.916Z,6.80
2018-02-13T13:34:23.447Z,6.80
2018-02-13T13:35:25.985Z,6.80
2018-02-13T13:36:28.497Z,6.80
2018-02-13T13:37:31.660Z,6.81
2018-02-13T13:38:34.104Z,6.81
2018-02-13T13:39:36.670Z,6.81
2018-02-13T13:40:39.308Z,6.82
2018-02-13T13:41:41.807Z,6.82
2018-02-13T13:42:44.326Z,6.83
2018-02-13T13:43:46.824Z,6.83
2018-02-13T13:44:49.288Z,6.83
2018-02-13T13:45:53.076Z,6.84
2018-02-13T13:46:56.074Z,6.84
2018-02-13T13:49:07.551Z,6.84
2018-02-13T13:50:09.993Z,6.86
2018-02-13T13:51:12.490Z,6.88
2018-02-13T13:52:14.964Z,6.89
2018-02-13T13:53:17.433Z,6.90
2018-02-13T13:54:19.919Z,6.91